Time;durP1;ratioP1;P1;durP2;ratioP2;P2;SDS_P1;SDS_P2;PMS_P1;PMS_P2;Temp;Humidity;BMP_temperature;BMP_pressure;BME280_temperature;BME280_humidity;BME280_pressure;Samples;Min_cycle;Max_cycle;Signal;HPM_P1;HPM_P2
2023/08/19 00:00:34;;;;;;;9.98;8.70;;;18.70;99.90;;;;;;4176775;28;20048;-82
2023/08/19 00:02:55;;;;;;;9.57;8.95;;;18.70;99.90;;;;;;4178147;28;20120;-82
2023/08/19 00:05:18;;;;;;;8.13;7.88;;;18.70;99.90;;;;;;4180775;28;20378;-82
2023/08/19 00:07:39;;;;;;;9.05;8.65;;;18.70;99.90;;;;;;4177656;28;20076;-82
2023/08/19 00:10:03;;;;;;;9.40;9.13;;;18.70;99.90;;;;;;4176720;28;20064;-82
2023/08/19 00:12:25;;;;;;;9.93;9.43;;;18.70;99.90;;;;;;4180851;28;20407;-82
2023/08/19 00:14:49;;;;;;;11.30;10.65;;;18.70;99.90;;;;;;4177655;28;20061;-82
2023/08/19 00:17:11;;;;;;;9.80;9.30;;;18.70;99.90;;;;;;4181809;28;20057;-82
2023/08/19 00:19:33;;;;;;;8.80;8.48;;;18.80;99.90;;;;;;4176694;28;20048;-82
2023/08/19 00:21:55;;;;;;;9.93;9.07;;;18.80;99.90;;;;;;4182501;28;20067;-82
2023/08/19 00:24:17;;;;;;;9.73;9.15;;;18.80;99.90;;;;;;4176350;28;20052;-82
2023/08/19 00:26:38;;;;;;;8.40;8.10;;;18.70;99.90;;;;;;4178798;28;20276;-82
2023/08/19 00:29:01;;;;;;;8.65;8.32;;;18.70;99.90;;;;;;4179251;28;20421;-82
2023/08/19 00:31:24;;;;;;;;;;;18.60;99.90;;;;;;4178371;28;20073;-82
2023/08/19 00:33:46;;;;;;;;;;;18.50;99.90;;;;;;4181833;28;19932;-82
2023/08/19 00:36:07;;;;;;;6.95;6.35;;;18.50;99.90;;;;;;4182394;28;19924;-82
2023/08/19 00:38:29;;;;;;;7.20;6.82;;;18.40;99.90;;;;;;4183448;28;20105;-82
2023/08/19 00:40:50;;;;;;;8.77;8.07;;;18.40;99.90;;;;;;4181002;28;20040;-82
2023/08/19 00:43:10;;;;;;;7.75;7.20;;;18.30;99.90;;;;;;4182840;28;20048;-82
2023/08/19 00:45:31;;;;;;;8.27;7.75;;;18.20;99.90;;;;;;4182809;28;20095;-82
2023/08/19 00:47:51;;;;;;;9.65;9.20;;;18.20;99.90;;;;;;4179809;28;20056;-82
2023/08/19 00:50:12;;;;;;;9.75;9.10;;;18.20;99.90;;;;;;4183188;28;20056;-82
2023/08/19 00:52:33;;;;;;;8.95;8.63;;;18.30;99.90;;;;;;4179657;28;20297;-82
2023/08/19 00:54:53;;;;;;;10.05;9.30;;;18.30;99.90;;;;;;4183947;28;20047;-82
2023/08/19 00:57:13;;;;;;;7.65;7.32;;;18.40;99.90;;;;;;4180497;28;20072;-82
2023/08/19 00:59:33;;;;;;;8.18;7.93;;;18.40;99.90;;;;;;4184681;28;20049;-82
2023/08/19 01:01:53;;;;;;;8.40;7.63;;;18.40;99.90;;;;;;4185021;28;20108;-85
2023/08/19 01:04:13;;;;;;;8.35;7.80;;;18.40;99.90;;;;;;4184934;28;20132;-85
2023/08/19 01:06:42;;;;;;;7.78;6.85;;;18.40;99.90;;;;;;4183083;28;20075;-85
2023/08/19 01:09:11;;;;;;;9.18;7.43;;;18.30;99.90;;;;;;4192297;28;20421;-85
2023/08/19 01:11:37;;;;;;;9.57;8.40;;;18.20;99.90;;;;;;4177408;28;20116;-85
2023/08/19 01:14:06;;;;;;;7.43;7.10;;;18.20;99.90;;;;;;4185354;28;20244;-85
2023/08/19 01:16:29;;;;;;;8.05;7.50;;;18.20;99.90;;;;;;4185368;28;20068;-85
2023/08/19 01:18:50;;;;;;;8.40;7.68;;;18.20;99.90;;;;;;4181573;28;20056;-85
2023/08/19 01:21:11;;;;;;;9.38;8.57;;;18.20;99.90;;;;;;4179995;28;20303;-85
2023/08/19 01:23:41;;;;;;;8.80;8.30;;;18.10;99.90;;;;;;4180293;28;20236;-85
2023/08/19 01:26:01;;;;;;;8.48;8.02;;;18.10;99.90;;;;;;4180114;28;20087;-85
2023/08/19 01:28:21;;;;;;;8.00;7.68;;;18.10;99.90;;;;;;4187666;28;20113;-85
2023/08/19 01:30:43;;;;;;;8.93;8.18;;;18.00;99.90;;;;;;4191953;28;20063;-85
2023/08/19 01:33:04;;;;;;;8.65;8.10;;;18.10;99.90;;;;;;4189597;28;20111;-85
2023/08/19 01:35:25;;;;;;;9.35;8.77;;;18.10;99.90;;;;;;4180416;28;20049;-85
2023/08/19 01:37:56;;;;;;;10.43;9.57;;;18.00;99.90;;;;;;4178640;28;20116;-85
2023/08/19 01:40:16;;;;;;;8.30;7.93;;;18.00;99.90;;;;;;4180871;28;20102;-85
2023/08/19 01:42:37;;;;;;;8.48;7.97;;;17.90;99.90;;;;;;4177949;28;20079;-85
2023/08/19 01:44:58;;;;;;;10.25;9.52;;;17.90;99.90;;;;;;4180171;28;20087;-85
2023/08/19 01:47:17;;;;;;;8.77;8.35;;;17.90;99.90;;;;;;4187599;28;20128;-85
2023/08/19 01:49:37;;;;;;;9.05;8.27;;;17.90;99.90;;;;;;4178148;28;20090;-85
2023/08/19 01:51:57;;;;;;;7.78;7.13;;;17.80;99.90;;;;;;4179159;28;20079;-85
2023/08/19 01:54:17;;;;;;;8.45;7.88;;;17.80;99.90;;;;;;4178355;28;20402;-85
2023/08/19 01:56:37;;;;;;;8.48;8.23;;;17.70;99.90;;;;;;4182610;28;20079;-85
2023/08/19 01:58:58;;;;;;;7.25;7.10;;;17.90;99.90;;;;;;4181632;28;20060;-85
2023/08/19 02:01:19;;;;;;;7.88;7.55;;;17.90;99.90;;;;;;4181036;28;20078;-85
2023/08/19 02:03:39;;;;;;;7.70;7.38;;;17.90;99.90;;;;;;4177307;28;20135;-85
2023/08/19 02:05:59;;;;;;;8.57;8.10;;;17.90;99.90;;;;;;4177433;28;20041;-85
2023/08/19 02:08:19;;;;;;;7.60;7.30;;;18.00;99.90;;;;;;4182832;28;20089;-85
2023/08/19 02:10:42;;;;;;;8.80;8.25;;;17.90;99.90;;;;;;4188833;28;20048;-82
2023/08/19 02:13:02;;;;;;;;;;;17.90;99.90;;;;;;4182356;28;20041;-82
2023/08/19 02:15:22;;;;;;;6.97;6.63;;;17.90;99.90;;;;;;4183447;28;20490;-82
2023/08/19 02:17:42;;;;;;;8.05;7.57;;;17.80;99.90;;;;;;4182716;28;20245;-82
2023/08/19 02:20:03;;;;;;;7.53;7.15;;;17.80;99.90;;;;;;4177848;28;20116;-82
2023/08/19 02:22:23;;;;;;;7.20;6.80;;;17.70;99.90;;;;;;4178733;28;20088;-82
2023/08/19 02:24:43;;;;;;;8.13;7.75;;;17.80;99.90;;;;;;4181571;28;20178;-82
2023/08/19 02:27:03;;;;;;;8.52;7.88;;;17.80;99.90;;;;;;4180610;28;20108;-82
2023/08/19 02:29:23;;;;;;;7.25;6.85;;;17.80;99.90;;;;;;4179010;28;20367;-82
2023/08/19 02:31:43;;;;;;;7.70;6.97;;;17.80;99.90;;;;;;4182981;28;20079;-82
2023/08/19 02:34:03;;;;;;;7.50;7.00;;;17.80;99.90;;;;;;4180802;28;20128;-82
2023/08/19 02:36:24;;;;;;;6.18;6.07;;;17.70;99.90;;;;;;4183613;28;20060;-82
2023/08/19 02:38:43;;;;;;;7.93;7.43;;;17.80;99.90;;;;;;4188068;28;20052;-82
2023/08/19 02:41:04;;;;;;;6.10;5.80;;;17.60;99.90;;;;;;4178224;28;20053;-82
2023/08/19 02:43:24;;;;;;;6.70;6.28;;;17.70;99.90;;;;;;4179324;28;20362;-81
2023/08/19 02:45:46;;;;;;;6.05;5.63;;;17.60;99.90;;;;;;4182242;28;20059;-82
2023/08/19 02:48:06;;;;;;;6.72;6.43;;;17.50;99.90;;;;;;4188815;28;20141;-82
2023/08/19 02:50:26;;;;;;;7.03;6.78;;;17.50;99.90;;;;;;4184217;28;20271;-82
2023/08/19 02:52:47;;;;;;;6.60;6.25;;;17.40;99.90;;;;;;4176728;28;20052;-82
2023/08/19 02:55:07;;;;;;;6.93;6.63;;;17.40;99.90;;;;;;4181993;28;20190;-81
2023/08/19 02:57:27;;;;;;;6.47;6.13;;;17.40;99.90;;;;;;4183517;28;20040;-82
2023/08/19 02:59:48;;;;;;;7.07;6.78;;;17.50;99.90;;;;;;4180957;28;20126;-82
2023/08/19 03:02:08;;;;;;;7.00;6.90;;;17.50;99.90;;;;;;4178961;28;20036;-82
2023/08/19 03:04:29;;;;;;;6.63;6.32;;;17.50;99.90;;;;;;4179831;28;20056;-82
2023/08/19 03:06:48;;;;;;;6.22;5.78;;;17.50;99.90;;;;;;4181313;28;20117;-82
2023/08/19 03:09:09;;;;;;;6.95;6.60;;;17.40;99.90;;;;;;4177246;28;20060;-82
2023/08/19 03:11:29;;;;;;;7.03;6.43;;;17.30;99.90;;;;;;4183164;28;20044;-82
2023/08/19 03:13:49;;;;;;;8.95;6.40;;;17.50;99.90;;;;;;4191224;28;20058;-82
2023/08/19 03:16:09;;;;;;;7.38;6.97;;;17.40;99.90;;;;;;4180097;28;20094;-82
2023/08/19 03:18:30;;;;;;;7.55;6.93;;;17.40;99.90;;;;;;4180988;28;20095;-85
2023/08/19 03:20:59;;;;;;;7.15;6.95;;;17.40;99.90;;;;;;4181425;28;20120;-81
2023/08/19 03:23:19;;;;;;;7.68;7.30;;;17.30;99.90;;;;;;4181349;28;20392;-81
2023/08/19 03:25:49;;;;;;;6.18;6.03;;;17.20;99.90;;;;;;4177119;28;20110;-82
2023/08/19 03:28:09;;;;;;;18.67;7.30;;;17.20;99.90;;;;;;4184972;28;20075;-81
2023/08/19 03:30:29;;;;;;;15.38;6.43;;;17.10;99.90;;;;;;4179481;28;20177;-81
2023/08/19 03:32:49;;;;;;;19.65;6.68;;;17.00;99.90;;;;;;4181800;28;20091;-81
2023/08/19 03:35:10;;;;;;;35.97;6.05;;;16.90;99.90;;;;;;4179653;28;20060;-81
2023/08/19 03:37:30;;;;;;;40.35;6.63;;;16.80;99.90;;;;;;4181247;28;20079;-81
2023/08/19 03:39:51;;;;;;;51.35;6.72;;;16.80;99.90;;;;;;4184691;28;20055;-81
2023/08/19 03:42:11;;;;;;;143.25;10.68;;;16.70;99.90;;;;;;4184972;28;20044;-81
2023/08/19 03:44:31;;;;;;;113.43;7.32;;;16.70;99.90;;;;;;4183389;28;20061;-81
2023/08/19 03:46:52;;;;;;;8.85;6.25;;;16.70;99.90;;;;;;4179691;28;20052;-81
2023/08/19 03:49:13;;;;;;;29.48;6.70;;;16.70;99.90;;;;;;4175767;28;20051;-82
2023/08/19 03:51:33;;;;;;;16.88;4.50;;;16.70;99.90;;;;;;4179419;28;20290;-81
2023/08/19 03:53:54;;;;;;;17.45;5.65;;;16.70;99.90;;;;;;4180256;28;20056;-81
2023/08/19 03:56:14;;;;;;;6.30;5.45;;;16.70;99.90;;;;;;4182767;28;20263;-81
2023/08/19 03:58:33;;;;;;;6.57;6.47;;;16.70;99.90;;;;;;4179368;28;20044;-81
2023/08/19 04:00:53;;;;;;;5.47;5.38;;;16.70;99.90;;;;;;4180305;28;20071;-81
2023/08/19 04:03:13;;;;;;;14.07;4.93;;;16.80;99.90;;;;;;4178648;28;20056;-81
2023/08/19 04:05:33;;;;;;;5.38;5.28;;;16.70;99.90;;;;;;4185208;28;20292;-82
2023/08/19 04:07:53;;;;;;;6.10;5.80;;;16.70;99.90;;;;;;4181871;28;20052;-81
2023/08/19 04:10:13;;;;;;;6.45;6.22;;;16.70;99.90;;;;;;4190016;28;20086;-81
2023/08/19 04:12:34;;;;;;;6.43;6.15;;;16.70;99.90;;;;;;4184493;28;20059;-81
2023/08/19 04:14:56;;;;;;;7.25;7.10;;;16.80;99.90;;;;;;4184510;28;20045;-81
2023/08/19 04:17:17;;;;;;;7.97;7.68;;;16.80;99.90;;;;;;4182749;28;20118;-81
2023/08/19 04:19:38;;;;;;;8.57;8.25;;;16.90;99.90;;;;;;4180145;28;20113;-81
2023/08/19 04:21:58;;;;;;;10.45;9.85;;;16.90;99.90;;;;;;4183231;28;20088;-81
2023/08/19 04:24:18;;;;;;;9.45;9.07;;;17.00;99.90;;;;;;4184947;28;20048;-81
2023/08/19 04:26:39;;;;;;;10.32;9.48;;;17.00;99.90;;;;;;4183147;28;20401;-81
2023/08/19 04:28:58;;;;;;;10.70;9.88;;;16.90;99.90;;;;;;4182240;28;20451;-88
2023/08/19 04:31:19;;;;;;;9.38;9.00;;;16.90;99.90;;;;;;4182586;28;20214;-88
2023/08/19 04:33:39;;;;;;;8.07;7.75;;;16.90;99.90;;;;;;4178452;28;20048;-88
2023/08/19 04:36:00;;;;;;;6.88;6.60;;;16.90;99.90;;;;;;4182965;28;20047;-88
2023/08/19 04:38:20;;;;;;;5.60;5.50;;;16.90;99.90;;;;;;4179173;28;20059;-88
2023/08/19 04:40:40;;;;;;;4.70;4.50;;;16.90;99.90;;;;;;4180684;28;20362;-88
2023/08/19 04:43:01;;;;;;;5.70;5.60;;;16.80;99.90;;;;;;4185616;28;20094;-87
2023/08/19 04:45:21;;;;;;;7.80;7.60;;;16.90;99.90;;;;;;4182778;28;20304;-88
2023/08/19 04:47:41;;;;;;;7.57;7.35;;;16.90;99.90;;;;;;4184421;28;20051;-89
2023/08/19 04:50:03;;;;;;;10.02;9.18;;;16.90;99.90;;;;;;4182470;28;20048;-88
2023/08/19 04:52:23;;;;;;;8.27;8.02;;;16.90;99.90;;;;;;4178865;28;20071;-88
2023/08/19 04:54:43;;;;;;;7.93;7.63;;;16.80;99.90;;;;;;4182212;28;20126;-88
2023/08/19 04:57:03;;;;;;;7.93;7.70;;;16.90;99.90;;;;;;4180658;28;20036;-88
2023/08/19 04:59:23;;;;;;;7.63;7.53;;;16.90;99.90;;;;;;4183978;28;20382;-88
2023/08/19 05:01:44;;;;;;;8.00;7.35;;;16.90;99.90;;;;;;4181910;28;20065;-88
2023/08/19 05:04:04;;;;;;;7.18;6.90;;;16.90;99.90;;;;;;4183362;28;20052;-88
2023/08/19 05:06:24;;;;;;;8.25;7.75;;;16.90;99.90;;;;;;4185579;28;20117;-89
2023/08/19 05:08:45;;;;;;;7.28;7.03;;;16.90;99.90;;;;;;4185364;28;20086;-88
2023/08/19 05:11:05;;;;;;;9.20;8.85;;;17.00;99.90;;;;;;4184617;28;20131;-89
2023/08/19 05:13:25;;;;;;;8.23;7.82;;;17.00;99.90;;;;;;4186975;28;20040;-88
2023/08/19 05:15:45;;;;;;;10.02;8.57;;;17.00;99.90;;;;;;4177114;28;20108;-89
2023/08/19 05:18:05;;;;;;;7.07;6.97;;;17.10;99.90;;;;;;4184555;28;20110;-87
2023/08/19 05:20:26;;;;;;;7.18;7.03;;;17.00;99.90;;;;;;4179498;28;20051;-88
2023/08/19 05:22:45;;;;;;;6.28;6.18;;;17.10;99.90;;;;;;4184848;28;20132;-89
2023/08/19 05:25:08;;;;;;;6.85;6.75;;;17.00;99.90;;;;;;4181228;28;20052;-88
2023/08/19 05:27:28;;;;;;;7.32;7.13;;;16.90;99.90;;;;;;4181042;28;20044;-88
2023/08/19 05:29:48;;;;;;;7.82;7.53;;;16.80;99.90;;;;;;4184881;28;20074;-88
2023/08/19 05:32:09;;;;;;;6.78;6.63;;;16.80;99.90;;;;;;4180121;28;20096;-88
2023/08/19 05:34:29;;;;;;;8.25;8.02;;;16.80;99.90;;;;;;4184540;28;20252;-91
2023/08/19 05:36:49;;;;;;;7.75;7.65;;;16.90;99.90;;;;;;4178815;28;20036;-90
2023/08/19 05:39:09;;;;;;;8.32;8.23;;;17.00;99.90;;;;;;4181699;28;20088;-86
2023/08/19 05:41:30;;;;;;;8.82;8.40;;;17.00;99.90;;;;;;4174118;28;20111;-86
2023/08/19 05:43:50;;;;;;;9.07;8.68;;;17.00;99.90;;;;;;4180513;28;20043;-86
2023/08/19 05:46:10;;;;;;;9.05;8.48;;;17.10;99.90;;;;;;4183081;28;20039;-86
2023/08/19 05:48:31;;;;;;;8.32;7.88;;;17.30;99.90;;;;;;4177376;28;20081;-86
2023/08/19 05:50:50;;;;;;;6.70;6.47;;;17.50;99.90;;;;;;4183529;28;20368;-86
2023/08/19 05:53:11;;;;;;;7.57;7.15;;;17.60;99.90;;;;;;4186560;28;20045;-87
2023/08/19 05:55:31;;;;;;;8.30;7.90;;;17.70;99.90;;;;;;4184465;28;20316;-86
2023/08/19 05:57:51;;;;;;;7.68;7.47;;;17.70;99.90;;;;;;4181754;28;20051;-86
2023/08/19 06:00:11;;;;;;;8.43;7.95;;;17.80;99.90;;;;;;4185366;28;20047;-86
2023/08/19 06:02:31;;;;;;;9.40;8.90;;;17.70;99.90;;;;;;4182371;28;20051;-86
2023/08/19 06:04:51;;;;;;;7.93;7.50;;;17.70;99.90;;;;;;4180235;28;20052;-86
2023/08/19 06:07:11;;;;;;;9.65;6.22;;;17.90;99.90;;;;;;4179658;28;20103;-84
2023/08/19 06:09:31;;;;;;;7.45;6.75;;;18.20;99.90;;;;;;4180374;28;20045;-81
2023/08/19 06:11:52;;;;;;;7.95;7.50;;;18.50;99.90;;;;;;4179358;28;20044;-80
2023/08/19 06:14:12;;;;;;;6.68;6.40;;;18.60;99.90;;;;;;4184913;28;20086;-79
2023/08/19 06:16:32;;;;;;;6.63;6.40;;;18.70;99.90;;;;;;4183684;28;20073;-80
2023/08/19 06:18:52;;;;;;;6.85;6.50;;;18.80;99.90;;;;;;4195503;28;20370;-81
2023/08/19 06:21:13;;;;;;;7.22;6.82;;;18.80;99.90;;;;;;4179918;28;20051;-81
2023/08/19 06:23:32;;;;;;;6.65;6.30;;;19.00;99.90;;;;;;4179221;28;20095;-80
2023/08/19 06:25:53;;;;;;;6.53;6.22;;;19.10;99.90;;;;;;4182112;28;20049;-81
2023/08/19 06:28:13;;;;;;;6.32;6.15;;;19.20;99.90;;;;;;4179778;28;20080;-80
2023/08/19 06:30:33;;;;;;;7.75;7.28;;;19.40;99.90;;;;;;4181088;28;20079;-80
2023/08/19 06:32:53;;;;;;;6.72;6.47;;;19.50;99.90;;;;;;4177736;28;20164;-80
2023/08/19 06:35:14;;;;;;;4.93;4.82;;;19.60;99.90;;;;;;4176238;28;20384;-80
2023/08/19 06:37:41;;;;;;;5.75;5.07;;;19.80;99.90;;;;;;4180646;28;20283;-80
2023/08/19 06:40:06;;;;;;;5.20;4.97;;;20.00;99.90;;;;;;4180628;28;20040;-80
2023/08/19 06:42:28;;;;;;;10.90;5.95;;;20.10;99.90;;;;;;4176940;28;20105;-80
2023/08/19 06:44:50;;;;;;;4.38;4.28;;;20.30;99.90;;;;;;4182681;28;20057;-80
2023/08/19 06:47:11;;;;;;;4.57;4.47;;;20.50;99.90;;;;;;4182136;28;20148;-80
2023/08/19 06:49:32;;;;;;;4.55;4.45;;;20.80;99.90;;;;;;4172425;28;20052;-82
2023/08/19 06:51:53;;;;;;;6.80;5.03;;;21.00;99.90;;;;;;4179039;28;20447;-82
2023/08/19 06:54:13;;;;;;;5.18;4.88;;;21.30;99.90;;;;;;4181933;28;20088;-82
2023/08/19 06:56:37;;;;;;;5.35;5.20;;;21.60;99.90;;;;;;4177362;28;20136;-82
2023/08/19 06:59:14;;;;;;;4.07;3.90;;;21.90;99.90;;;;;;4183637;28;20051;-82
2023/08/19 07:01:40;;;;;;;4.70;4.30;;;22.00;99.90;;;;;;4180214;28;20363;-82
2023/08/19 07:04:03;;;;;;;3.90;3.72;;;22.20;99.90;;;;;;4180096;28;20244;-82
2023/08/19 07:06:25;;;;;;;3.35;3.15;;;22.50;99.90;;;;;;4176334;28;20040;-82
2023/08/19 07:08:45;;;;;;;3.33;3.22;;;22.70;99.90;;;;;;4186855;28;20044;-81
2023/08/19 07:11:07;;;;;;;7.18;3.17;;;22.80;99.90;;;;;;4179678;28;20080;-82
2023/08/19 07:13:28;;;;;;;3.88;3.58;;;23.10;99.90;;;;;;4178758;28;20060;-82
2023/08/19 07:15:54;;;;;;;2.75;2.28;;;23.30;99.90;;;;;;4180993;28;20378;-82
2023/08/19 07:18:19;;;;;;;5.65;2.67;;;23.50;99.90;;;;;;4179444;28;20110;-82
2023/08/19 07:20:40;;;;;;;2.95;2.65;;;23.70;99.90;;;;;;4178448;28;20047;-82
2023/08/19 07:23:00;;;;;;;5.13;3.50;;;23.90;99.90;;;;;;4178378;28;20048;-82
2023/08/19 07:25:20;;;;;;;2.92;2.72;;;24.10;99.90;;;;;;4177606;28;20052;-83
2023/08/19 07:27:44;;;;;;;3.38;2.22;;;24.30;99.90;;;;;;4182816;28;20128;-82
2023/08/19 07:30:05;;;;;;;2.83;2.63;;;24.60;99.90;;;;;;4187140;28;20040;-82
2023/08/19 07:32:27;;;;;;;2.97;2.85;;;24.80;99.90;;;;;;4182592;28;20375;-82
2023/08/19 07:34:47;;;;;;;2.80;2.22;;;24.90;99.90;;;;;;4181322;28;20087;-82
2023/08/19 07:37:07;;;;;;;2.75;2.55;;;25.10;99.90;;;;;;4180273;28;20109;-83
2023/08/19 07:39:31;;;;;;;2.22;2.13;;;25.20;99.90;;;;;;4178223;28;20047;-82
2023/08/19 07:41:51;;;;;;;2.65;1.85;;;25.20;99.90;;;;;;4180439;28;20044;-83
2023/08/19 07:44:11;;;;;;;3.45;3.15;;;25.30;99.90;;;;;;4180797;28;20097;-83
2023/08/19 07:46:32;;;;;;;4.80;2.85;;;25.60;99.90;;;;;;4181045;28;20048;-83
2023/08/19 07:48:52;;;;;;;7.57;2.20;;;25.70;99.90;;;;;;4178743;28;20060;-82
2023/08/19 07:51:13;;;;;;;2.42;2.33;;;25.90;99.90;;;;;;4180131;28;20051;-83
2023/08/19 07:53:34;;;;;;;3.33;2.05;;;26.20;99.90;;;;;;4181517;28;20048;-83
2023/08/19 07:55:54;;;;;;;3.97;2.78;;;26.40;99.90;;;;;;4178922;28;20044;-82
2023/08/19 07:58:13;;;;;;;3.90;2.22;;;26.40;99.90;;;;;;4184986;28;20043;-83
2023/08/19 08:00:33;;;;;;;1.92;1.83;;;26.60;99.90;;;;;;4184047;28;20056;-79
2023/08/19 08:02:53;;;;;;;2.35;1.92;;;26.50;99.90;;;;;;4183234;28;20056;-79
2023/08/19 08:05:14;;;;;;;5.47;1.60;;;26.40;99.90;;;;;;4180602;28;20087;-79
2023/08/19 08:07:34;;;;;;;3.70;1.98;;;26.70;99.90;;;;;;4181649;28;20044;-79
2023/08/19 08:09:54;;;;;;;3.33;1.40;;;26.90;99.90;;;;;;4175755;28;20108;-79
2023/08/19 08:12:14;;;;;;;2.08;1.70;;;27.30;99.90;;;;;;4181517;28;20055;-79
2023/08/19 08:14:34;;;;;;;2.88;1.35;;;27.60;99.90;;;;;;4185565;28;20135;-79
2023/08/19 08:16:56;;;;;;;2.80;1.65;;;27.80;99.90;;;;;;4180932;28;20044;-79
2023/08/19 08:19:16;;;;;;;1.58;1.48;;;27.90;99.00;;;;;;4179374;28;20047;-79
2023/08/19 08:21:36;;;;;;;7.63;1.50;;;28.10;98.10;;;;;;4181689;28;20052;-79
2023/08/19 08:23:56;;;;;;;2.47;1.52;;;28.20;96.20;;;;;;4176478;28;20064;-79
2023/08/19 08:26:17;;;;;;;3.83;1.75;;;28.50;97.70;;;;;;4185354;28;20224;-79
2023/08/19 08:28:36;;;;;;;1.40;1.40;;;28.70;95.20;;;;;;4178257;28;20047;-79
2023/08/19 08:30:56;;;;;;;2.13;1.35;;;28.90;94.40;;;;;;4176374;28;20372;-79
2023/08/19 08:33:16;;;;;;;1.52;1.33;;;29.10;95.70;;;;;;4180832;28;20044;-79
2023/08/19 08:35:37;;;;;;;1.23;1.05;;;29.20;96.40;;;;;;4180426;28;20099;-90
2023/08/19 08:37:57;;;;;;;1.50;1.13;;;29.40;93.80;;;;;;4179451;28;20426;-89
2023/08/19 08:40:17;;;;;;;2.45;1.10;;;29.70;94.20;;;;;;4181319;28;20047;-89
2023/08/19 08:42:38;;;;;;;1.77;1.65;;;29.80;92.30;;;;;;4179494;28;20052;-89
2023/08/19 08:45:00;;;;;;;1.88;1.00;;;29.80;92.70;;;;;;4181451;28;20232;-90
2023/08/19 08:47:20;;;;;;;0.98;0.98;;;30.00;92.00;;;;;;4178347;28;20044;-89
2023/08/19 08:49:44;;;;;;;4.00;1.33;;;30.40;93.60;;;;;;4186550;28;20043;-91
2023/08/19 08:52:04;;;;;;;1.33;1.20;;;30.60;92.50;;;;;;4183031;28;20047;-88
2023/08/19 08:54:24;;;;;;;4.90;1.10;;;30.80;92.80;;;;;;4185559;28;20056;-90
2023/08/19 08:56:43;;;;;;;3.10;1.52;;;31.00;92.80;;;;;;4184249;28;20053;-90
2023/08/19 08:59:04;;;;;;;1.90;1.10;;;31.00;92.30;;;;;;4178383;28;20121;-91
2023/08/19 09:01:26;;;;;;;4.78;1.00;;;30.90;92.50;;;;;;4180723;28;20045;-90
2023/08/19 09:03:47;;;;;;;3.83;1.30;;;31.10;93.20;;;;;;4178483;28;20287;-91
2023/08/19 09:06:13;;;;;;;1.85;1.30;;;31.40;92.10;;;;;;4188558;28;20064;-90
2023/08/19 09:09:00;;;;;;;2.78;0.95;;;31.50;92.70;;;;;;4188503;28;20080;-90
2023/08/19 09:11:25;;;;;;;1.00;1.00;;;31.40;92.50;;;;;;4182568;28;20082;-81
2023/08/19 09:13:47;;;;;;;1.15;1.00;;;31.80;91.30;;;;;;4181974;28;20381;-82
2023/08/19 09:16:11;;;;;;;2.35;0.90;;;32.10;92.30;;;;;;4180375;28;20049;-82
2023/08/19 09:18:32;;;;;;;4.15;0.90;;;32.30;92.10;;;;;;4181118;28;20072;-82
2023/08/19 09:20:51;;;;;;;2.80;1.00;;;32.40;90.70;;;;;;4174657;28;20224;-82
2023/08/19 09:23:11;;;;;;;3.33;1.02;;;32.60;92.30;;;;;;4177391;28;20080;-82
2023/08/19 09:25:32;;;;;;;1.75;0.80;;;32.60;90.60;;;;;;4185215;28;20371;-82
2023/08/19 09:27:52;;;;;;;1.02;1.00;;;32.70;90.00;;;;;;4179793;28;20059;-82
2023/08/19 09:30:16;;;;;;;1.40;0.85;;;33.00;91.20;;;;;;4188292;28;20096;-82
2023/08/19 09:32:36;;;;;;;1.45;0.70;;;33.10;90.00;;;;;;4183247;28;20063;-82
2023/08/19 09:35:02;;;;;;;1.88;0.98;;;33.10;86.90;;;;;;4183259;28;20079;-82
2023/08/19 09:37:24;;;;;;;1.48;0.70;;;32.80;88.70;;;;;;4178879;28;20056;-82
2023/08/19 09:39:45;;;;;;;0.60;0.60;;;32.90;88.70;;;;;;4180373;28;20043;-83
2023/08/19 09:42:05;;;;;;;3.17;0.80;;;33.10;90.90;;;;;;4184202;28;20052;-82
2023/08/19 09:44:29;;;;;;;1.52;0.60;;;33.40;88.40;;;;;;4177195;28;20049;-82
2023/08/19 09:46:49;;;;;;;0.88;0.70;;;33.80;90.60;;;;;;4181147;28;20112;-83
2023/08/19 09:49:10;;;;;;;1.25;0.70;;;34.20;90.00;;;;;;4187650;28;20426;-82
2023/08/19 09:51:31;;;;;;;0.55;0.55;;;34.40;86.20;;;;;;4173723;28;20076;-83
2023/08/19 09:53:52;;;;;;;1.10;0.50;;;34.50;82.80;;;;;;4180348;28;20083;-82
2023/08/19 09:56:22;;;;;;;0.50;0.50;;;34.70;82.30;;;;;;4186765;28;20118;-82
2023/08/19 09:58:42;;;;;;;1.67;0.50;;;34.70;81.60;;;;;;4179442;28;20120;-82
2023/08/19 10:01:03;;;;;;;0.95;0.50;;;35.10;84.00;;;;;;4178722;28;20048;-82
2023/08/19 10:03:23;;;;;;;1.05;0.70;;;35.10;78.20;;;;;;4180119;28;20079;-83
2023/08/19 10:05:46;;;;;;;2.42;0.50;;;34.70;78.00;;;;;;4183336;28;20436;-82
2023/08/19 10:08:10;;;;;;;1.90;0.60;;;34.40;77.60;;;;;;4181471;28;20113;-82
2023/08/19 10:10:31;;;;;;;0.50;0.50;;;34.70;77.70;;;;;;4182585;28;20444;-82
2023/08/19 10:12:53;;;;;;;0.60;0.60;;;35.20;78.10;;;;;;4180221;28;20733;-82
2023/08/19 10:15:13;;;;;;;1.98;0.50;;;35.50;80.20;;;;;;4180208;28;20294;-82
2023/08/19 10:17:36;;;;;;;0.43;0.43;;;35.80;77.10;;;;;;4180776;28;20084;-83
2023/08/19 10:20:05;;;;;;;1.05;0.40;;;35.80;73.50;;;;;;4180639;28;20155;-85
2023/08/19 10:22:29;;;;;;;0.45;0.40;;;35.80;70.40;;;;;;4181513;28;20048;-86
2023/08/19 10:24:51;;;;;;;3.92;0.45;;;35.00;69.00;;;;;;4184863;28;20048;-85
2023/08/19 10:27:17;;;;;;;;;;;34.70;73.40;;;;;;4180413;28;20076;-86
2023/08/19 10:29:37;;;;;;;1.02;0.40;;;35.30;74.00;;;;;;4179349;28;19959;-86
2023/08/19 10:32:27;;;;;;;1.27;0.45;;;35.10;69.00;;;;;;4181017;28;20064;-86
2023/08/19 10:34:47;;;;;;;2.08;0.50;;;35.00;70.10;;;;;;4183835;28;20052;-85
2023/08/19 10:37:09;;;;;;;0.45;0.45;;;35.20;69.00;;;;;;4180693;28;20063;-86
2023/08/19 10:39:30;;;;;;;0.50;0.50;;;35.50;70.20;;;;;;4180243;28;20056;-86
2023/08/19 10:41:50;;;;;;;0.75;0.45;;;35.80;75.90;;;;;;4178693;28;20060;-86
2023/08/19 10:44:13;;;;;;;0.40;0.40;;;36.10;73.50;;;;;;4179586;28;20071;-85
2023/08/19 10:46:37;;;;;;;0.95;0.52;;;36.00;69.30;;;;;;4183974;28;20386;-86
2023/08/19 10:48:57;;;;;;;1.48;0.50;;;36.10;70.80;;;;;;4179899;28;20375;-87
2023/08/19 10:51:20;;;;;;;0.45;0.45;;;35.90;70.70;;;;;;4179803;28;20265;-87
2023/08/19 10:53:48;;;;;;;2.10;0.50;;;35.70;70.00;;;;;;4182233;28;20040;-86
2023/08/19 10:56:13;;;;;;;1.75;0.50;;;36.30;70.10;;;;;;4179235;28;20259;-86
2023/08/19 10:58:33;;;;;;;1.42;0.40;;;36.50;72.30;;;;;;4182237;28;20048;-87
2023/08/19 11:00:53;;;;;;;1.30;0.50;;;36.50;70.40;;;;;;4180948;28;20280;-86
2023/08/19 11:03:12;;;;;;;0.63;0.50;;;36.60;69.20;;;;;;4179379;28;20117;-86
2023/08/19 11:05:33;;;;;;;2.25;0.40;;;37.00;73.00;;;;;;4177543;28;20157;-86
2023/08/19 11:07:54;;;;;;;2.53;0.50;;;37.30;72.60;;;;;;4177968;28;20371;-87
2023/08/19 11:10:14;;;;;;;1.65;0.40;;;37.40;67.10;;;;;;4180792;28;20244;-86
2023/08/19 11:12:35;;;;;;;1.27;0.50;;;37.30;65.10;;;;;;4178867;28;20053;-87
2023/08/19 11:14:55;;;;;;;0.40;0.40;;;37.40;70.40;;;;;;4179443;28;20279;-86
2023/08/19 11:17:17;;;;;;;5.35;0.50;;;37.20;68.60;;;;;;4179228;28;20499;-86
2023/08/19 11:19:37;;;;;;;;;;;37.10;63.50;;;;;;4181640;28;20159;-86
2023/08/19 11:21:57;;;;;;;0.55;0.43;;;37.20;68.10;;;;;;4176966;28;19932;-86
2023/08/19 11:24:17;;;;;;;1.42;0.40;;;37.60;69.90;;;;;;4179454;28;20060;-87
2023/08/19 11:26:42;;;;;;;1.63;0.40;;;37.40;63.50;;;;;;4178782;28;20080;-85
2023/08/19 11:29:04;;;;;;;0.43;0.40;;;37.30;68.30;;;;;;4178491;28;20053;-85
2023/08/19 11:31:25;;;;;;;0.40;0.40;;;37.30;64.50;;;;;;4177775;28;20367;-82
2023/08/19 11:33:45;;;;;;;0.75;0.50;;;37.30;66.70;;;;;;4177284;28;20048;-82
2023/08/19 11:36:05;;;;;;;2.30;0.50;;;37.20;67.50;;;;;;4177068;28;20060;-82
2023/08/19 11:38:25;;;;;;;2.45;0.50;;;37.40;66.60;;;;;;4182070;28;20082;-82
2023/08/19 11:40:45;;;;;;;0.50;0.50;;;37.00;66.90;;;;;;4177876;28;20056;-82
2023/08/19 11:43:08;;;;;;;0.50;0.50;;;37.00;66.90;;;;;;4179292;28;20064;-82
2023/08/19 11:45:38;;;;;;;0.50;0.50;;;37.00;64.80;;;;;;4179871;28;20047;-82
2023/08/19 11:47:57;;;;;;;1.42;0.60;;;36.70;65.70;;;;;;4180549;28;20102;-82
2023/08/19 11:50:18;;;;;;;0.77;0.70;;;36.30;66.70;;;;;;4175923;28;20060;-81
2023/08/19 11:52:38;;;;;;;0.77;0.60;;;36.50;66.20;;;;;;4173900;28;20233;-82
2023/08/19 11:55:07;;;;;;;0.50;0.50;;;37.00;66.40;;;;;;4177415;28;20131;-81
2023/08/19 11:57:34;;;;;;;1.25;0.50;;;37.00;64.80;;;;;;4180320;28;20048;-81
2023/08/19 11:59:58;;;;;;;1.10;0.52;;;36.50;66.30;;;;;;4176169;28;20080;-81
2023/08/19 12:02:18;;;;;;;0.93;0.50;;;36.40;66.80;;;;;;4181044;28;20122;-82
2023/08/19 12:04:38;;;;;;;0.98;0.52;;;36.20;66.80;;;;;;4182172;28;20287;-81
2023/08/19 12:06:58;;;;;;;0.75;0.70;;;36.30;65.90;;;;;;4177865;28;20048;-81
2023/08/19 12:09:20;;;;;;;2.20;0.50;;;36.90;65.50;;;;;;4181198;28;20112;-81
2023/08/19 12:11:40;;;;;;;0.75;0.57;;;37.00;66.20;;;;;;4178096;28;20067;-82
2023/08/19 12:14:01;;;;;;;1.58;0.60;;;37.10;66.40;;;;;;4176796;28;20064;-82
2023/08/19 12:16:21;;;;;;;2.17;0.60;;;37.00;63.70;;;;;;4179176;28;20073;-81